Time;durP1;ratioP1;P1;durP2;ratioP2;P2;SDS_P1;SDS_P2;PMS_P1;PMS_P2;Temp;Humidity;BMP_temperature;BMP_pressure;BME280_temperature;BME280_humidity;BME280_pressure;Samples;Min_cycle;Max_cycle;Signal;HPM_P1;HPM_P2
2022/10/23 00:04:50;;;;;;;0.45;0.43;;;;;;;11.21;100.00;101916.94;10639478;28;20042;-77
2022/10/23 00:09:52;;;;;;;2.78;1.85;;;;;;;11.20;100.00;101922.94;10631915;28;20047;-76
2022/10/23 00:14:54;;;;;;;2.30;0.47;;;;;;;11.11;100.00;101919.16;10663268;28;20046;-76
2022/10/23 00:19:55;;;;;;;0.40;0.30;;;;;;;10.98;100.00;101924.66;10642162;28;20032;-77
2022/10/23 00:24:57;;;;;;;0.70;0.52;;;;;;;10.58;100.00;101907.53;10635179;28;20050;-77
2022/10/23 00:29:59;;;;;;;0.47;0.47;;;;;;;10.46;100.00;101898.47;10658367;27;20066;-77
2022/10/23 00:35:01;;;;;;;0.30;0.20;;;;;;;10.50;100.00;101890.88;10623914;28;20031;-77
2022/10/23 00:40:03;;;;;;;1.60;0.55;;;;;;;10.47;100.00;101882.19;10643275;28;20050;-77
2022/10/23 00:45:32;;;;;;;1.17;0.10;;;;;;;10.47;100.00;101905.38;10623068;28;20390;-77
2022/10/23 00:50:33;;;;;;;5.22;1.20;;;;;;;10.68;100.00;101914.84;10623890;28;20051;-77
2022/10/23 00:55:37;;;;;;;0.22;0.22;;;;;;;10.76;100.00;101923.75;10638456;28;20050;-77
2022/10/23 01:00:44;;;;;;;0.30;0.15;;;;;;;10.63;100.00;101921.47;10632187;28;20044;-77
2022/10/23 01:05:58;;;;;;;1.50;0.93;;;;;;;10.62;100.00;101935.19;10640624;27;20047;-78
2022/10/23 01:11:29;;;;;;;0.47;0.47;;;;;;;10.65;100.00;101935.31;10637638;27;20511;-77
2022/10/23 01:16:43;;;;;;;0.73;0.50;;;;;;;10.66;100.00;101926.78;10595491;27;20047;-77
2022/10/23 01:21:54;;;;;;;1.85;0.70;;;;;;;10.49;100.00;101923.50;10609557;27;20046;-77
2022/10/23 01:27:16;;;;;;;0.63;0.47;;;;;;;10.34;100.00;101912.50;10582183;27;20096;-77
2022/10/23 01:32:37;;;;;;;0.35;0.20;;;;;;;10.27;100.00;101903.63;10607152;27;20524;-77
2022/10/23 01:37:50;;;;;;;0.22;0.22;;;;;;;10.33;100.00;101916.75;10593318;27;20422;-77
2022/10/23 01:42:56;;;;;;;0.00;0.00;;;;;;;10.43;100.00;101921.53;10607669;27;20084;-77
2022/10/23 01:48:03;;;;;;;0.20;0.20;;;;;;;10.32;100.00;101915.00;10600549;27;20070;-77
2022/10/23 01:53:09;;;;;;;0.32;0.32;;;;;;;10.35;100.00;101904.81;10615022;27;20570;-77
2022/10/23 01:58:14;;;;;;;0.10;0.10;;;;;;;10.55;100.00;101917.69;10610582;27;20134;-77
2022/10/23 02:03:17;;;;;;;0.10;0.10;;;;;;;10.36;100.00;101903.13;10594945;27;20100;-78
2022/10/23 02:08:20;;;;;;;0.15;0.10;;;;;;;10.38;100.00;101904.09;10604050;27;20350;-77
2022/10/23 02:13:32;;;;;;;0.98;0.70;;;;;;;10.29;100.00;101887.41;10597292;27;20053;-77
2022/10/23 02:18:50;;;;;;;0.45;0.40;;;;;;;10.20;100.00;101888.72;10606445;27;20062;-78
2022/10/23 02:24:04;;;;;;;0.52;0.50;;;;;;;10.27;100.00;101875.28;10600120;27;20228;-77
2022/10/23 02:29:15;;;;;;;0.88;0.68;;;;;;;10.19;100.00;101866.34;10594724;27;20047;-78
2022/10/23 02:34:19;;;;;;;0.30;0.17;;;;;;;10.43;100.00;101877.72;10605247;27;20046;-77
2022/10/23 02:39:25;;;;;;;0.88;0.30;;;;;;;10.36;100.00;101883.41;10624243;27;20059;-78
2022/10/23 02:44:36;;;;;;;0.00;0.00;;;;;;;10.42;100.00;101888.84;10613215;27;20395;-77
2022/10/23 02:49:48;;;;;;;0.20;0.15;;;;;;;10.52;100.00;101892.69;10605325;27;20043;-78
2022/10/23 02:55:21;;;;;;;0.43;0.32;;;;;;;10.50;100.00;101898.59;10604583;27;20064;-77
2022/10/23 03:00:23;;;;;;;0.65;0.60;;;;;;;10.51;100.00;101897.78;10590229;27;20093;-77
2022/10/23 03:05:33;;;;;;;0.63;0.63;;;;;;;10.49;100.00;101902.88;10604879;27;20047;-77
2022/10/23 03:10:34;;;;;;;1.08;0.35;;;;;;;10.45;100.00;101912.19;10609981;27;20050;-78
2022/10/23 03:15:36;;;;;;;2.00;0.70;;;;;;;10.55;100.00;101909.97;10601320;27;20059;-78
2022/10/23 03:20:37;;;;;;;0.20;0.20;;;;;;;10.51;100.00;101910.66;10604478;27;20397;-78
2022/10/23 03:25:39;;;;;;;0.13;0.13;;;;;;;10.56;100.00;101915.22;10592963;27;20050;-78
2022/10/23 03:37:09;;;;;;;0.45;0.10;;;;;;;10.60;100.00;101895.59;10625789;27;20035;-78
2022/10/23 03:42:11;;;;;;;0.20;0.20;;;;;;;10.63;100.00;101894.03;10630848;27;20119;-77
2022/10/23 03:47:12;;;;;;;3.70;1.17;;;;;;;10.52;100.00;101881.53;10606676;27;20043;-77
2022/10/23 03:52:15;;;;;;;2.90;1.08;;;;;;;10.63;100.00;101885.41;10602153;27;20043;-77
2022/10/23 03:57:16;;;;;;;1.15;0.43;;;;;;;10.63;100.00;101876.00;10598467;27;20049;-78
2022/10/23 04:02:18;;;;;;;0.57;0.20;;;;;;;10.71;100.00;101873.72;10608709;27;20039;-77
2022/10/23 04:07:20;;;;;;;0.30;0.30;;;;;;;10.75;100.00;101874.72;10610714;28;20049;-77
2022/10/23 04:12:22;;;;;;;0.52;0.38;;;;;;;10.78;100.00;101870.56;10594126;28;20066;-77
2022/10/23 04:17:25;;;;;;;0.95;0.63;;;;;;;10.75;100.00;101869.56;10603645;28;20043;-77
2022/10/23 04:22:32;;;;;;;0.40;0.30;;;;;;;10.76;100.00;101861.03;10601921;28;20428;-77
2022/10/23 04:27:34;;;;;;;0.08;0.05;;;;;;;10.68;100.00;101852.09;10604135;28;20043;-77
2022/10/23 04:32:35;;;;;;;1.35;0.32;;;;;;;10.66;100.00;101844.31;10603101;28;20039;-77
2022/10/23 04:37:38;;;;;;;0.45;0.20;;;;;;;10.74;100.00;101835.19;10604995;27;20402;-77
2022/10/23 04:42:40;;;;;;;0.17;0.17;;;;;;;10.78;100.00;101834.47;10610711;27;20051;-77
2022/10/23 04:47:42;;;;;;;0.10;0.10;;;;;;;10.84;100.00;101843.28;10601119;27;20082;-77
2022/10/23 04:52:44;;;;;;;0.10;0.10;;;;;;;10.98;100.00;101834.41;10605778;27;20078;-77
2022/10/23 04:58:18;;;;;;;0.63;0.22;;;;;;;10.99;100.00;101820.66;10603931;27;20051;-79
2022/10/23 05:03:21;;;;;;;0.30;0.30;;;;;;;10.90;100.00;101810.03;10603925;27;20383;-77
2022/10/23 05:08:23;;;;;;;4.03;2.28;;;;;;;10.85;100.00;101799.53;10607546;27;20070;-78
2022/10/23 05:13:39;;;;;;;0.10;0.10;;;;;;;10.93;100.00;101797.25;10637400;27;20047;-78
2022/10/23 05:18:45;;;;;;;1.33;0.30;;;;;;;10.93;100.00;101798.13;10630439;27;20383;-77
2022/10/23 05:23:47;;;;;;;0.30;0.20;;;;;;;10.89;100.00;101779.91;10612498;27;20055;-78
2022/10/23 05:28:49;;;;;;;0.60;0.40;;;;;;;10.90;100.00;101772.22;10612145;27;20043;-77
2022/10/23 05:33:54;;;;;;;0.10;0.05;;;;;;;10.98;100.00;101754.47;10611674;27;20508;-77
2022/10/23 05:38:57;;;;;;;0.20;0.10;;;;;;;11.02;100.00;101764.06;10606488;27;20053;-77
2022/10/23 05:43:59;;;;;;;1.05;0.32;;;;;;;11.01;100.00;101758.88;10568984;28;20509;-77
2022/10/23 05:49:26;;;;;;;0.50;0.50;;;;;;;11.10;100.00;101765.25;10607272;27;20043;-77
2022/10/23 05:54:50;;;;;;;1.73;0.75;;;;;;;11.17;100.00;101762.91;10597388;27;20057;-77
2022/10/23 06:00:19;;;;;;;0.77;0.52;;;;;;;11.21;100.00;101764.75;10595142;27;20092;-77
2022/10/23 06:05:33;;;;;;;0.15;0.15;;;;;;;11.20;100.00;101752.69;10594980;27;20050;-77
2022/10/23 06:10:55;;;;;;;0.30;0.30;;;;;;;11.11;100.00;101735.16;10569129;28;20109;-77
2022/10/23 06:15:57;;;;;;;2.50;0.32;;;;;;;10.85;100.00;101726.44;10593254;27;20052;-77
2022/10/23 06:21:00;;;;;;;0.50;0.50;;;;;;;10.85;100.00;101727.34;10566939;28;20562;-77
2022/10/23 06:26:03;;;;;;;0.88;0.80;;;;;;;11.01;100.00;101718.47;10590127;27;20387;-77
2022/10/23 06:31:19;;;;;;;0.52;0.43;;;;;;;11.04;100.00;101713.44;10610090;27;20055;-77
2022/10/23 06:36:25;;;;;;;0.35;0.30;;;;;;;11.12;100.00;101724.03;10609070;27;20130;-77
2022/10/23 06:41:33;;;;;;;0.10;0.10;;;;;;;11.18;100.00;101718.22;10582074;28;20044;-77
2022/10/23 06:46:34;;;;;;;1.52;0.70;;;;;;;11.22;100.00;101696.88;10566301;28;20048;-77
2022/10/23 06:52:11;;;;;;;0.40;0.38;;;;;;;11.19;100.00;101694.19;10584111;28;20387;-77
2022/10/23 06:57:29;;;;;;;0.15;0.15;;;;;;;11.22;100.00;101691.72;10565847;28;20050;-77
2022/10/23 07:02:30;;;;;;;0.55;0.52;;;;;;;11.30;100.00;101695.44;10577965;27;20047;-78
2022/10/23 07:07:32;;;;;;;1.15;0.52;;;;;;;11.38;100.00;101696.59;10607804;27;20053;-77
2022/10/23 07:12:34;;;;;;;0.55;0.32;;;;;;;11.50;100.00;101691.00;10596453;27;20071;-78
2022/10/23 07:17:58;;;;;;;0.10;0.10;;;;;;;11.59;100.00;101698.16;10568573;28;20048;-77
2022/10/23 07:23:11;;;;;;;0.20;0.20;;;;;;;11.69;100.00;101683.91;10599170;27;20128;-77
2022/10/23 07:28:13;;;;;;;0.43;0.10;;;;;;;11.75;100.00;101673.78;10607169;27;20054;-77
2022/10/23 07:33:15;;;;;;;0.85;0.63;;;;;;;11.86;100.00;101676.72;10606889;27;20482;-77
2022/10/23 07:38:33;;;;;;;0.13;0.13;;;;;;;11.99;100.00;101673.72;10582053;28;20100;-77
2022/10/23 07:43:35;;;;;;;1.13;0.40;;;;;;;12.17;100.00;101667.41;10603654;27;20039;-77
2022/10/23 07:48:37;;;;;;;0.03;0.03;;;;;;;12.15;100.00;101658.72;10573163;28;20546;-76
2022/10/23 07:53:41;;;;;;;0.28;0.22;;;;;;;12.29;100.00;101654.84;10564666;28;20070;-77
2022/10/23 07:58:57;;;;;;;0.08;0.08;;;;;;;12.37;100.00;101644.75;10566395;28;20047;-77
2022/10/23 08:04:00;;;;;;;0.47;0.32;;;;;;;12.45;100.00;101637.25;10604597;27;20088;-77
2022/10/23 08:09:04;;;;;;;0.00;0.00;;;;;;;12.56;100.00;101630.66;10583911;28;20487;-77
2022/10/23 08:14:10;;;;;;;0.28;0.20;;;;;;;12.63;100.00;101619.66;10576333;28;20559;-77
2022/10/23 08:19:15;;;;;;;1.02;0.40;;;;;;;12.67;100.00;101629.28;10578797;27;20546;-77
2022/10/23 08:24:19;;;;;;;0.25;0.20;;;;;;;12.76;100.00;101620.03;10638141;27;20084;-77
2022/10/23 08:29:27;;;;;;;0.40;0.20;;;;;;;12.77;100.00;101593.34;10619880;27;20054;-77
2022/10/23 08:34:30;;;;;;;0.28;0.20;;;;;;;12.85;100.00;101591.84;10619866;27;20134;-78
2022/10/23 08:39:34;;;;;;;0.52;0.40;;;;;;;12.89;100.00;101566.94;10619731;27;20049;-78
2022/10/23 08:45:20;;;;;;;0.43;0.22;;;;;;;12.95;100.00;101552.47;10619691;27;20554;-78
2022/10/23 08:50:29;;;;;;;0.75;0.55;;;;;;;12.93;100.00;101537.75;10620107;27;20066;-77
2022/10/23 08:55:39;;;;;;;1.23;0.68;;;;;;;12.98;100.00;101516.34;10619462;27;20070;-77
2022/10/23 09:00:42;;;;;;;0.10;0.10;;;;;;;13.06;100.00;101492.38;10619431;27;20117;-77
2022/10/23 09:06:12;;;;;;;0.20;0.20;;;;;;;13.16;100.00;101478.81;10619267;27;20550;-76
2022/10/23 09:11:31;;;;;;;0.65;0.43;;;;;;;13.32;100.00;101460.25;10638021;27;20043;-77
2022/10/23 09:16:38;;;;;;;2.22;1.05;;;;;;;13.40;100.00;101444.06;10638624;27;20533;-76
2022/10/23 09:21:43;;;;;;;0.13;0.13;;;;;;;13.52;100.00;101436.56;10637562;27;20066;-77
2022/10/23 09:26:49;;;;;;;0.20;0.17;;;;;;;13.69;100.00;101418.84;10630424;27;20077;-77
2022/10/23 09:31:54;;;;;;;0.70;0.38;;;;;;;13.82;100.00;101409.56;10613788;27;20054;-77
2022/10/23 09:37:01;;;;;;;0.20;0.13;;;;;;;13.96;100.00;101397.78;10634791;27;20067;-77
2022/10/23 09:42:20;;;;;;;0.98;0.43;;;;;;;14.00;100.00;101369.34;10639128;27;20043;-77
2022/10/23 09:47:24;;;;;;;0.32;0.10;;;;;;;13.96;100.00;101364.09;10631057;27;20040;-77
2022/10/23 09:52:36;;;;;;;1.00;0.40;;;;;;;14.07;100.00;101345.31;10611262;27;20053;-77
2022/10/23 09:57:42;;;;;;;1.85;1.33;;;;;;;14.23;100.00;101339.56;10629344;27;20053;-77
2022/10/23 10:03:02;;;;;;;0.55;0.45;;;;;;;14.21;100.00;101359.38;10630363;27;20039;-77
2022/10/23 10:08:23;;;;;;;0.10;0.10;;;;;;;14.36;100.00;101329.41;10596526;27;20047;-77
2022/10/23 10:13:38;;;;;;;0.40;0.20;;;;;;;14.41;100.00;101307.00;10611507;27;20069;-76
2022/10/23 10:18:55;;;;;;;2.03;1.15;;;;;;;14.49;100.00;101297.66;10629722;27;20039;-76
2022/10/23 10:31:08;;;;;;;0.20;0.20;;;;;;;14.82;100.00;101261.88;10628724;27;20023;-77
2022/10/23 10:36:31;;;;;;;0.20;0.20;;;;;;;14.95;100.00;101255.13;10609500;27;20401;-78
2022/10/23 10:41:54;;;;;;;0.30;0.30;;;;;;;15.06;100.00;101225.88;10627910;27;20050;-77
2022/10/23 10:47:36;;;;;;;0.10;0.10;;;;;;;15.16;100.00;101224.25;10609068;27;20047;-76
2022/10/23 10:53:02;;;;;;;4.13;0.38;;;;;;;15.18;100.00;101201.78;10609455;27;20054;-77
2022/10/23 10:58:19;;;;;;;0.35;0.22;;;;;;;15.30;100.00;101182.03;10608900;27;20095;-77
2022/10/23 11:03:35;;;;;;;0.88;0.40;;;;;;;15.35;100.00;101164.78;10610163;27;20043;-76
2022/10/23 11:08:41;;;;;;;5.72;1.90;;;;;;;15.43;100.00;101141.47;10626827;27;20432;-76
2022/10/23 11:13:59;;;;;;;0.10;0.10;;;;;;;15.66;100.00;101128.72;10627803;27;20039;-77
2022/10/23 11:19:11;;;;;;;0.35;0.30;;;;;;;15.51;100.00;101112.16;10608177;27;20477;-76
2022/10/23 11:24:57;;;;;;;0.98;0.63;;;;;;;15.54;100.00;101093.13;10608013;27;20046;-76
2022/10/23 11:30:20;;;;;;;0.10;0.10;;;;;;;15.53;100.00;101097.44;10625740;27;20081;-77
2022/10/23 11:35:41;;;;;;;0.10;0.10;;;;;;;15.73;100.00;101078.56;10626903;27;20359;-75
2022/10/23 11:40:52;;;;;;;0.30;0.30;;;;;;;15.75;100.00;101056.03;10607435;27;20138;-75
2022/10/23 11:45:54;;;;;;;0.30;0.30;;;;;;;15.85;100.00;101037.09;10606291;27;20436;-76
2022/10/23 11:50:56;;;;;;;0.32;0.15;;;;;;;16.06;100.00;101045.03;10626633;27;20447;-77
2022/10/23 11:56:24;;;;;;;0.30;0.30;;;;;;;16.11;100.00;101017.31;10625546;27;20035;-77
2022/10/23 12:01:44;;;;;;;0.63;0.30;;;;;;;16.21;100.00;100985.31;10607266;27;20043;-76
2022/10/23 12:07:24;;;;;;;6.95;0.25;;;;;;;16.60;100.00;100959.41;10626160;27;20043;-76
2022/10/23 12:12:39;;;;;;;0.10;0.10;;;;;;;16.62;100.00;100921.28;10602234;28;20078;-77
2022/10/23 12:17:42;;;;;;;0.68;0.68;;;;;;;16.80;100.00;100897.00;10606492;28;20367;-77
2022/10/23 12:22:47;;;;;;;0.20;0.13;;;;;;;17.03;100.00;100875.34;10606032;28;20054;-78
2022/10/23 12:34:42;;;;;;;0.68;0.25;;;;;;;17.53;100.00;100798.81;10605741;28;20088;-77
2022/10/23 12:39:51;;;;;;;0.28;0.17;;;;;;;17.64;100.00;100780.53;10624029;28;20062;-76
2022/10/23 12:45:03;;;;;;;2.20;0.45;;;;;;;17.70;100.00;100785.69;10605416;28;20447;-77
2022/10/23 12:50:20;;;;;;;0.85;0.45;;;;;;;17.76;100.00;100749.19;10625020;28;20138;-77
2022/10/23 12:55:24;;;;;;;0.82;0.65;;;;;;;17.77;100.00;100730.06;10623717;28;20034;-78
2022/10/23 13:00:25;;;;;;;0.90;0.40;;;;;;;17.97;100.00;100725.63;10631796;27;20042;-77
2022/10/23 13:05:28;;;;;;;0.15;0.15;;;;;;;17.96;100.00;100713.47;10631545;27;20050;-77
2022/10/23 13:10:30;;;;;;;1.02;1.00;;;;;;;18.04;100.00;100701.25;10631802;27;20525;-78
2022/10/23 13:15:39;;;;;;;1.30;0.32;;;;;;;18.08;100.00;100698.59;10597756;27;20139;-77
2022/10/23 13:20:54;;;;;;;0.00;0.00;;;;;;;18.18;100.00;100688.09;10612923;27;20039;-77
2022/10/23 13:26:32;;;;;;;0.10;0.10;;;;;;;18.19;100.00;100689.81;10630711;27;20402;-77
2022/10/23 13:31:34;;;;;;;0.10;0.10;;;;;;;18.19;100.00;100685.47;10606027;27;20477;-76
2022/10/23 13:36:38;;;;;;;0.30;0.30;;;;;;;18.08;100.00;100682.09;10630306;27;20537;-76
2022/10/23 13:41:42;;;;;;;2.05;0.57;;;;;;;18.01;100.00;100676.06;10630124;27;20079;-76
2022/10/23 13:46:44;;;;;;;0.10;0.10;;;;;;;17.97;100.00;100671.78;10611663;27;20065;-76
2022/10/23 13:51:53;;;;;;;1.08;0.25;;;;;;;17.92;100.00;100658.75;10611408;27;20054;-77
2022/10/23 13:56:56;;;;;;;0.57;0.30;;;;;;;17.92;100.00;100652.66;10650358;27;20038;-76
2022/10/23 14:01:57;;;;;;;0.20;0.20;;;;;;;18.00;100.00;100650.88;10637293;27;20108;-76
2022/10/23 14:06:59;;;;;;;0.10;0.10;;;;;;;17.98;100.00;100639.63;10617044;27;20042;-76
2022/10/23 14:12:01;;;;;;;0.10;0.10;;;;;;;17.98;100.00;100623.97;10628990;27;20474;-75
2022/10/23 14:17:03;;;;;;;0.32;0.00;;;;;;;17.96;100.00;100617.91;10629190;27;20074;-76
2022/10/23 14:22:05;;;;;;;0.17;0.17;;;;;;;18.01;100.00;100599.63;10628646;27;20047;-75
2022/10/23 14:27:11;;;;;;;0.32;0.28;;;;;;;18.05;100.00;100594.38;10609922;27;20545;-76
2022/10/23 14:32:12;;;;;;;0.00;0.00;;;;;;;17.99;100.00;100597.00;10628238;27;20054;-75
2022/10/23 14:37:14;;;;;;;4.55;2.08;;;;;;;17.97;100.00;100592.69;10627961;27;20046;-75
2022/10/23 14:42:15;;;;;;;1.42;0.30;;;;;;;17.93;100.00;100594.44;10628820;27;20067;-76
2022/10/23 14:47:18;;;;;;;0.10;0.10;;;;;;;17.92;100.00;100577.94;10627434;27;20368;-76
2022/10/23 14:52:19;;;;;;;0.88;0.50;;;;;;;17.98;100.00;100548.41;10627192;27;20133;-77
2022/10/23 14:57:21;;;;;;;0.03;0.00;;;;;;;17.91;100.00;100544.06;10627470;27;20046;-75
2022/10/23 15:02:23;;;;;;;0.10;0.00;;;;;;;17.83;100.00;100544.16;10608822;27;20439;-77
2022/10/23 15:07:24;;;;;;;0.00;0.00;;;;;;;17.80;100.00;100545.94;10627711;27;20129;-76
2022/10/23 15:12:26;;;;;;;0.00;0.00;;;;;;;17.74;100.00;100541.63;10626381;27;20043;-77
2022/10/23 15:17:27;;;;;;;0.10;0.10;;;;;;;17.67;100.00;100555.59;10626216;27;20126;-76
2022/10/23 15:22:29;;;;;;;0.17;0.15;;;;;;;17.56;100.00;100556.56;10626201;27;20045;-76
2022/10/23 15:27:30;;;;;;;0.20;0.20;;;;;;;17.62;100.00;100546.97;10626227;27;20035;-76
2022/10/23 15:32:32;;;;;;;0.17;0.17;;;;;;;17.46;100.00;100541.88;10626412;27;20057;-77
2022/10/23 15:37:34;;;;;;;0.00;0.00;;;;;;;17.44;100.00;100534.09;10625892;27;20078;-77
2022/10/23 15:42:36;;;;;;;0.20;0.15;;;;;;;17.39;100.00;100535.84;10625431;27;20096;-76
2022/10/23 15:47:37;;;;;;;0.63;0.38;;;;;;;17.50;100.00;100534.91;10606843;27;20040;-76
2022/10/23 15:52:39;;;;;;;2.65;0.43;;;;;;;17.43;100.00;100527.16;10606933;27;20133;-76
2022/10/23 15:57:41;;;;;;;0.20;0.20;;;;;;;17.31;100.00;100542.00;10606569;27;20050;-75
2022/10/23 16:02:42;;;;;;;1.05;0.60;;;;;;;17.25;100.00;100542.91;10606641;27;20375;-76
2022/10/23 16:07:44;;;;;;;0.38;0.32;;;;;;;17.17;100.00;100544.72;10624733;27;20038;-76
2022/10/23 16:12:46;;;;;;;6.43;0.70;;;;;;;17.11;100.00;100541.28;10625393;28;20104;-77
2022/10/23 16:17:47;;;;;;;0.63;0.35;;;;;;;17.12;100.00;100553.44;10606541;28;20070;-76
2022/10/23 16:22:49;;;;;;;0.82;0.57;;;;;;;17.06;100.00;100548.25;10606364;28;20122;-76
2022/10/23 16:27:50;;;;;;;0.10;0.00;;;;;;;17.03;100.00;100540.47;10606014;28;20130;-76
2022/10/23 16:32:53;;;;;;;0.43;0.28;;;;;;;17.01;100.00;100531.81;10608848;27;20048;-77
2022/10/23 16:37:55;;;;;;;0.10;0.10;;;;;;;17.11;100.00;100522.22;10615482;27;20096;-77
2022/10/23 16:42:57;;;;;;;0.20;0.20;;;;;;;17.02;100.00;100517.06;10614057;27;20043;-75
2022/10/23 16:48:26;;;;;;;0.10;0.10;;;;;;;17.05;100.00;100484.06;10613818;27;20494;-76
2022/10/23 16:53:29;;;;;;;0.43;0.10;;;;;;;16.92;100.00;100417.34;10614170;27;20172;-75
2022/10/23 16:58:32;;;;;;;1.83;0.93;;;;;;;16.81;100.00;100413.09;10631989;27;20049;-76
2022/10/23 17:03:36;;;;;;;0.22;0.22;;;;;;;16.91;100.00;100416.47;10631794;27;20468;-76
2022/10/23 17:08:39;;;;;;;1.63;0.60;;;;;;;16.90;100.00;100411.28;10613183;27;20146;-77
2022/10/23 17:13:44;;;;;;;0.65;0.30;;;;;;;16.94;100.00;100471.13;10612939;27;20058;-76
2022/10/23 17:18:46;;;;;;;0.60;0.28;;;;;;;16.96;100.00;100525.75;10632337;27;20071;-75
2022/10/23 17:23:48;;;;;;;0.52;0.40;;;;;;;16.93;100.00;100557.03;10631095;27;20042;-76
2022/10/23 17:28:50;;;;;;;0.10;0.10;;;;;;;16.95;100.00;100550.94;10630784;27;20047;-76
2022/10/23 17:33:57;;;;;;;0.47;0.20;;;;;;;16.86;100.00;100537.09;10612616;27;20461;-77
2022/10/23 17:38:59;;;;;;;0.32;0.17;;;;;;;16.79;100.00;100539.69;10631560;27;20043;-77
2022/10/23 17:44:01;;;;;;;0.00;0.00;;;;;;;16.70;100.00;100552.78;10628912;27;20082;-76
2022/10/23 17:49:04;;;;;;;0.10;0.10;;;;;;;16.88;100.00;100537.94;10629780;27;20082;-77
2022/10/23 17:54:09;;;;;;;0.22;0.20;;;;;;;16.78;100.00;100543.22;10611262;27;20043;-77
2022/10/23 17:59:12;;;;;;;0.13;0.13;;;;;;;16.72;100.00;100545.81;10630347;27;20075;-76
2022/10/23 18:04:17;;;;;;;1.33;0.45;;;;;;;16.67;100.00;100550.19;10629978;27;20084;-75
2022/10/23 18:09:20;;;;;;;0.70;0.52;;;;;;;16.59;100.00;100562.34;10629025;27;20050;-77
2022/10/23 18:14:22;;;;;;;0.30;0.10;;;;;;;16.67;100.00;100560.59;10610545;27;20122;-77
2022/10/23 18:19:29;;;;;;;0.55;0.30;;;;;;;16.68;100.00;100551.91;10634468;27;20452;-76
2022/10/23 18:24:31;;;;;;;0.08;0.08;;;;;;;16.75;100.00;100538.00;10647457;27;20058;-76
2022/10/23 18:29:32;;;;;;;0.75;0.75;;;;;;;16.79;100.00;100539.69;10618475;27;20169;-75
2022/10/23 18:34:34;;;;;;;1.02;0.60;;;;;;;16.77;100.00;100541.47;10627856;27;20070;-77
2022/10/23 18:39:35;;;;;;;0.10;0.10;;;;;;;16.78;100.00;100511.09;10627594;27;20046;-75
2022/10/23 18:44:37;;;;;;;0.65;0.30;;;;;;;16.85;100.00;100506.75;10608816;27;20114;-76
2022/10/23 18:49:39;;;;;;;0.55;0.32;;;;;;;16.81;100.00;100524.09;10627033;27;20043;-75
2022/10/23 18:54:40;;;;;;;0.32;0.17;;;;;;;16.78;100.00;100517.19;10608041;27;20083;-75
2022/10/23 18:59:42;;;;;;;0.28;0.10;;;;;;;16.71;100.00;100505.09;10608191;27;20510;-75
2022/10/23 19:04:43;;;;;;;0.63;0.55;;;;;;;16.75;100.00;100517.19;10608185;27;20122;-76
2022/10/23 19:09:45;;;;;;;0.95;0.30;;;;;;;16.64;100.00;100526.81;10607864;27;20053;-76
2022/10/23 19:14:47;;;;;;;0.00;0.00;;;;;;;16.56;100.00;100531.19;10627234;27;20043;-76
2022/10/23 19:19:52;;;;;;;0.35;0.30;;;;;;;16.57;100.00;100523.38;10626864;27;20039;-77
2022/10/23 19:25:00;;;;;;;0.68;0.25;;;;;;;16.54;100.00;100532.91;10607731;27;20043;-76
2022/10/23 19:30:05;;;;;;;0.25;0.22;;;;;;;16.43;100.00;100504.38;10626716;27;20047;-76
2022/10/23 19:35:11;;;;;;;0.50;0.20;;;;;;;16.43;100.00;100488.78;10607324;27;20042;-76
2022/10/23 19:40:14;;;;;;;0.55;0.55;;;;;;;16.38;100.00;100491.38;10590190;27;20086;-76
2022/10/23 19:45:16;;;;;;;0.15;0.15;;;;;;;16.45;100.00;100480.09;10625213;27;20043;-76
2022/10/23 19:50:18;;;;;;;0.40;0.40;;;;;;;16.42;100.00;100487.88;10625155;27;20047;-76
2022/10/23 19:55:21;;;;;;;0.35;0.20;;;;;;;16.41;100.00;100500.91;10624997;27;20036;-76
2022/10/23 20:00:23;;;;;;;0.32;0.17;;;;;;;16.40;100.00;100515.66;10624842;27;20070;-75
2022/10/23 20:05:24;;;;;;;0.08;0.08;;;;;;;16.31;100.00;100580.66;10625841;27;20070;-77
2022/10/23 20:10:26;;;;;;;0.43;0.30;;;;;;;16.31;100.00;100640.47;10624590;27;20100;-77
2022/10/23 20:15:28;;;;;;;0.15;0.15;;;;;;;16.50;100.00;100642.13;10625094;28;20047;-76
2022/10/23 20:20:30;;;;;;;1.10;0.90;;;;;;;16.41;100.00;100657.78;10606159;28;20555;-76
2022/10/23 20:25:32;;;;;;;15.07;0.73;;;;;;;16.36;100.00;100659.50;10624344;28;20049;-76
2022/10/23 20:30:39;;;;;;;1.90;0.10;;;;;;;16.62;100.00;100609.16;10624757;28;20043;-77
2022/10/23 20:35:41;;;;;;;4.65;0.98;;;;;;;16.53;100.00;100591.00;10607115;28;20118;-77
2022/10/23 20:40:43;;;;;;;0.70;0.35;;;;;;;16.09;100.00;100671.69;10623775;28;20051;-76
2022/10/23 20:45:45;;;;;;;0.15;0.10;;;;;;;15.73;100.00;100738.31;10604654;28;20100;-77
2022/10/23 20:50:49;;;;;;;0.03;0.03;;;;;;;15.71;100.00;100729.63;10624075;28;20502;-77
2022/10/23 20:55:51;;;;;;;0.20;0.15;;;;;;;15.59;100.00;100732.22;10623710;28;20125;-77
2022/10/23 21:00:52;;;;;;;0.32;0.32;;;;;;;15.49;100.00;100711.41;10623802;28;20054;-76
2022/10/23 21:05:54;;;;;;;0.17;0.13;;;;;;;15.54;100.00;100735.66;10623532;28;20050;-76
2022/10/23 21:10:56;;;;;;;0.55;0.40;;;;;;;15.69;100.00;100724.44;10588182;28;20385;-76
2022/10/23 21:15:57;;;;;;;0.15;0.15;;;;;;;15.93;100.00;100701.13;10623414;28;20043;-77
2022/10/23 21:20:59;;;;;;;1.75;1.45;;;;;;;16.09;100.00;100656.09;10630441;27;20047;-76
2022/10/23 21:26:05;;;;;;;0.45;0.38;;;;;;;16.23;100.00;100626.59;10632007;27;20043;-76
2022/10/23 21:31:11;;;;;;;0.00;0.00;;;;;;;15.94;100.00;100645.69;10630458;27;20050;-76
2022/10/23 21:36:16;;;;;;;0.25;0.05;;;;;;;15.76;100.00;100668.16;10612813;27;20125;-76
2022/10/23 21:41:30;;;;;;;0.22;0.20;;;;;;;15.77;100.00;100675.09;10611999;27;20117;-77
2022/10/23 21:46:33;;;;;;;3.30;1.80;;;;;;;15.54;100.00;100685.47;10612928;27;20381;-76
2022/10/23 21:51:36;;;;;;;0.43;0.43;;;;;;;15.42;100.00;100720.06;10630346;27;20043;-77
2022/10/23 21:56:45;;;;;;;0.55;0.50;;;;;;;15.23;100.00;100745.06;10631178;27;20035;-75
2022/10/23 22:01:47;;;;;;;1.03;0.50;;;;;;;15.18;100.00;100773.59;10612721;27;20128;-77
2022/10/23 22:06:49;;;;;;;0.55;0.32;;;;;;;15.09;100.00;100786.50;10651799;27;20047;-77
2022/10/23 22:11:52;;;;;;;3.80;1.48;;;;;;;15.05;100.00;100777.00;10639747;27;20046;-76
2022/10/23 22:16:53;;;;;;;0.00;0.00;;;;;;;15.04;100.00;100783.88;10629547;27;20097;-75
2022/10/23 22:21:55;;;;;;;5.65;0.93;;;;;;;15.04;100.00;100780.44;10610587;27;20054;-76
2022/10/23 22:26:57;;;;;;;0.00;0.00;;;;;;;15.15;100.00;100776.16;10628394;27;20039;-75
2022/10/23 22:31:58;;;;;;;0.10;0.10;;;;;;;15.27;100.00;100751.16;10608966;27;20581;-75
2022/10/23 22:37:00;;;;;;;2.08;0.40;;;;;;;15.26;100.00;100741.63;10628039;27;20039;-76
2022/10/23 22:42:01;;;;;;;0.10;0.10;;;;;;;15.31;100.00;100726.91;10627819;27;20482;-77
2022/10/23 22:47:03;;;;;;;0.00;0.00;;;;;;;15.29;100.00;100734.72;10609383;27;20039;-76
2022/10/23 22:52:05;;;;;;;0.30;0.30;;;;;;;15.33;100.00;100740.78;10609281;27;20154;-76
2022/10/23 22:57:06;;;;;;;5.95;1.40;;;;;;;15.26;100.00;100746.81;10628288;27;20122;-76
2022/10/23 23:02:08;;;;;;;0.08;0.03;;;;;;;15.32;100.00;100742.53;10626929;27;20134;-75
2022/10/23 23:07:11;;;;;;;0.70;0.40;;;;;;;15.25;100.00;100737.28;10627807;27;20114;-77
2022/10/23 23:12:13;;;;;;;0.30;0.10;;;;;;;15.16;100.00;100744.16;10608806;27;20043;-76
2022/10/23 23:17:15;;;;;;;0.10;0.10;;;;;;;15.17;100.00;100735.53;10626328;27;20043;-76
2022/10/23 23:22:16;;;;;;;21.25;1.65;;;;;;;15.04;100.00;100749.31;10607883;27;20545;-76
2022/10/23 23:27:18;;;;;;;0.00;0.00;;;;;;;15.04;100.00;100744.13;10627066;27;20050;-76
2022/10/23 23:32:19;;;;;;;0.47;0.43;;;;;;;15.13;100.00;100726.00;10607692;27;20035;-76
2022/10/23 23:37:21;;;;;;;1.27;0.20;;;;;;;15.06;100.00;100714.72;10625961;27;20043;-76